createdAt,value
2022-10-24T00:01:41.645Z,16.13
2022-10-24T00:04:10.706Z,22.00
2022-10-24T00:06:39.047Z,18.20
2022-10-24T00:09:07.337Z,19.00
2022-10-24T00:11:36.372Z,14.82
2022-10-24T00:14:04.682Z,17.73
2022-10-24T00:16:35.801Z,16.63
2022-10-24T00:19:04.135Z,20.17
2022-10-24T00:21:32.320Z,19.40
2022-10-24T00:24:00.547Z,18.85
2022-10-24T00:26:30.103Z,18.40
2022-10-24T00:28:58.367Z,17.13
2022-10-24T00:31:26.621Z,24.75
2022-10-24T00:33:56.730Z,25.63
2022-10-24T00:36:26.206Z,24.67
2022-10-24T00:38:55.538Z,21.15
2022-10-24T00:41:26.274Z,22.38
2022-10-24T00:44:20.961Z,20.90
2022-10-24T00:46:52.987Z,23.70
2022-10-24T00:49:26.929Z,23.95
2022-10-24T00:52:00.030Z,24.67
2022-10-24T00:54:28.298Z,28.45
2022-10-24T00:57:03.703Z,22.33
2022-10-24T00:59:34.817Z,23.42
2022-10-24T01:02:03.673Z,24.30
2022-10-24T01:04:33.261Z,24.95
2022-10-24T01:07:24.667Z,24.73
2022-10-24T01:10:12.649Z,26.50
2022-10-24T01:12:52.205Z,27.90
2022-10-24T01:15:24.862Z,29.63
2022-10-24T01:18:01.265Z,27.13
2022-10-24T01:20:53.434Z,25.60
2022-10-24T01:23:59.084Z,22.42
2022-10-24T01:26:55.062Z,31.20
2022-10-24T01:29:52.606Z,23.90
2022-10-24T01:32:32.592Z,24.75
2022-10-24T01:35:06.279Z,25.92
2022-10-24T01:37:40.446Z,23.38
2022-10-24T01:40:14.539Z,24.95
2022-10-24T01:42:44.267Z,22.63
2022-10-24T01:45:21.304Z,25.58
2022-10-24T01:47:53.644Z,32.75
2022-10-24T01:50:24.960Z,25.05
2022-10-24T01:52:54.321Z,20.20
2022-10-24T01:55:23.178Z,24.13
2022-10-24T01:57:51.400Z,18.30
2022-10-24T02:00:24.342Z,20.48
2022-10-24T02:02:56.578Z,20.58
2022-10-24T02:05:30.005Z,24.48
2022-10-24T02:08:02.110Z,27.58
2022-10-24T02:10:33.913Z,21.80
2022-10-24T02:13:06.426Z,23.83
2022-10-24T02:15:41.565Z,20.50
2022-10-24T02:18:10.656Z,34.28
2022-10-24T02:20:45.402Z,26.13
2022-10-24T02:23:19.394Z,25.70
2022-10-24T02:25:53.039Z,22.83
2022-10-24T02:28:24.357Z,23.55
2022-10-24T02:30:58.971Z,21.33
2022-10-24T02:33:29.224Z,29.05
2022-10-24T02:35:58.358Z,22.50
2022-10-24T02:38:31.457Z,22.77
2022-10-24T02:41:01.644Z,25.55
2022-10-24T02:43:32.712Z,27.10
2022-10-24T02:46:03.328Z,24.65
2022-10-24T02:48:37.205Z,23.30
2022-10-24T02:51:06.516Z,23.75
2022-10-24T02:53:37.678Z,27.17
2022-10-24T02:56:06.498Z,25.83
2022-10-24T02:58:35.303Z,25.33
2022-10-24T03:01:05.585Z,27.67
2022-10-24T03:03:33.882Z,29.08
2022-10-24T03:06:02.094Z,32.92
2022-10-24T03:08:30.323Z,25.30
2022-10-24T03:10:58.543Z,30.00
2022-10-24T03:13:26.866Z,30.85
2022-10-24T03:15:55.146Z,24.70
2022-10-24T03:18:24.872Z,26.30
2022-10-24T03:20:53.379Z,27.90
2022-10-24T03:23:22.210Z,24.95
2022-10-24T03:25:50.501Z,32.25
2022-10-24T03:28:18.762Z,26.20
2022-10-24T03:30:47.040Z,26.98
2022-10-24T03:33:15.294Z,23.10
2022-10-24T03:35:45.022Z,25.50
2022-10-24T03:38:13.286Z,28.73
2022-10-24T03:40:41.640Z,26.05
2022-10-24T03:43:10.038Z,36.80
2022-10-24T03:45:39.434Z,25.95
2022-10-24T03:48:08.397Z,29.92
2022-10-24T03:50:36.936Z,25.40
2022-10-24T03:53:06.685Z,31.02
2022-10-24T03:55:35.235Z,33.15
2022-10-24T03:58:03.542Z,25.20
2022-10-24T04:00:34.670Z,23.45
2022-10-24T04:03:02.953Z,23.20
2022-10-24T04:05:31.286Z,28.27
2022-10-24T04:07:59.531Z,29.63
2022-10-24T04:10:29.173Z,35.08
2022-10-24T04:12:57.445Z,37.67
2022-10-24T04:15:25.703Z,22.77
2022-10-24T04:17:53.943Z,25.80
2022-10-24T04:20:23.243Z,24.08
2022-10-24T04:22:51.829Z,26.15
2022-10-24T04:25:20.434Z,22.83
2022-10-24T04:27:50.060Z,23.02
2022-10-24T04:30:19.768Z,24.45
2022-10-24T04:32:48.296Z,24.17
2022-10-24T04:35:16.712Z,27.65
2022-10-24T04:37:44.949Z,24.60
2022-10-24T04:40:13.413Z,22.13
2022-10-24T04:42:41.778Z,26.52
2022-10-24T04:45:12.476Z,27.75
2022-10-24T04:47:40.719Z,22.58
2022-10-24T04:50:10.183Z,22.50
2022-10-24T04:52:38.433Z,23.02
2022-10-24T04:55:07.321Z,26.02
2022-10-24T04:57:35.543Z,24.17
2022-10-24T05:00:04.767Z,23.55
2022-10-24T05:02:34.452Z,21.52
2022-10-24T05:05:02.829Z,27.00
2022-10-24T05:07:30.997Z,25.30
2022-10-24T05:09:59.392Z,25.17
2022-10-24T05:12:27.704Z,24.25
2022-10-24T05:14:56.053Z,24.23
2022-10-24T05:17:24.488Z,23.42
2022-10-24T05:19:54.173Z,25.50
2022-10-24T05:22:22.537Z,21.45
2022-10-24T05:24:50.942Z,29.00
2022-10-24T05:27:24.605Z,24.05
2022-10-24T05:29:53.136Z,28.17
2022-10-24T05:32:22.757Z,22.30
2022-10-24T05:34:51.544Z,24.90
2022-10-24T05:37:21.271Z,25.45
2022-10-24T05:39:49.549Z,23.98
2022-10-24T05:42:18.080Z,21.20
2022-10-24T05:44:46.418Z,26.55
2022-10-24T05:47:14.624Z,24.42
2022-10-24T05:49:42.806Z,19.92
2022-10-24T05:52:10.985Z,21.55
2022-10-24T05:54:55.352Z,18.52
2022-10-24T05:57:30.103Z,23.08
2022-10-24T05:59:58.394Z,28.50
2022-10-24T06:02:26.680Z,27.52
2022-10-24T06:04:56.241Z,28.63
2022-10-24T06:07:24.839Z,26.45
2022-10-24T06:09:54.540Z,21.85
2022-10-24T06:12:22.741Z,27.27
2022-10-24T06:14:51.031Z,16.25
2022-10-24T06:17:19.300Z,19.42
2022-10-24T06:22:17.865Z,26.40
2022-10-24T06:24:46.082Z,18.02
2022-10-24T06:27:15.793Z,20.42
2022-10-24T06:29:44.403Z,23.95
2022-10-24T06:32:12.934Z,17.70
2022-10-24T06:34:41.149Z,19.15
2022-10-24T06:37:09.406Z,15.43
2022-10-24T06:39:37.635Z,16.73
2022-10-24T06:42:06.024Z,18.92
2022-10-24T06:44:35.900Z,15.45
2022-10-24T06:47:04.187Z,19.98
2022-10-24T06:49:32.513Z,20.85
2022-10-24T06:52:00.717Z,17.13
2022-10-24T06:54:30.385Z,11.88
2022-10-24T06:56:58.918Z,18.73
2022-10-24T06:59:27.503Z,20.05
2022-10-24T07:02:01.752Z,13.80
2022-10-24T07:04:33.233Z,16.48
2022-10-24T07:07:01.409Z,13.27
2022-10-24T07:09:30.622Z,17.73
2022-10-24T07:11:59.496Z,17.23
2022-10-24T07:14:28.455Z,17.58
2022-10-24T07:16:58.404Z,14.02
2022-10-24T07:19:26.731Z,21.80
2022-10-24T07:21:54.915Z,21.63
2022-10-24T07:24:23.105Z,18.83
2022-10-24T07:26:51.455Z,16.60
2022-10-24T07:29:20.034Z,12.73
2022-10-24T07:31:49.287Z,16.20
2022-10-24T07:34:18.898Z,12.88
2022-10-24T07:36:47.169Z,10.73
2022-10-24T07:39:15.437Z,17.17
2022-10-24T07:41:43.825Z,17.38
2022-10-24T07:44:12.200Z,15.88
2022-10-24T07:46:42.336Z,14.07
2022-10-24T07:49:11.109Z,18.15
2022-10-24T07:51:43.453Z,13.03
2022-10-24T07:54:11.641Z,15.43
2022-10-24T07:56:39.905Z,9.53
2022-10-24T07:59:09.501Z,13.60
2022-10-24T08:01:41.942Z,6.93
2022-10-24T08:04:11.014Z,12.90
2022-10-24T08:06:42.851Z,10.83
2022-10-24T08:09:11.035Z,15.00
2022-10-24T08:11:41.460Z,17.60
2022-10-24T08:14:12.316Z,8.90
2022-10-24T08:16:42.783Z,10.67
2022-10-24T08:19:13.895Z,7.93
2022-10-24T08:21:43.835Z,8.07
2022-10-24T08:24:12.150Z,10.23
2022-10-24T08:26:41.389Z,15.33
2022-10-24T08:29:11.576Z,20.37
2022-10-24T08:31:40.267Z,9.00
2022-10-24T08:34:11.229Z,11.13
2022-10-24T08:36:39.434Z,10.13
2022-10-24T08:39:08.981Z,11.00
2022-10-24T08:41:39.725Z,11.63
2022-10-24T08:44:17.805Z,9.80
2022-10-24T08:46:52.975Z,11.53
2022-10-24T08:49:29.639Z,8.80
2022-10-24T08:52:02.654Z,10.50
2022-10-24T08:54:37.897Z,11.73
2022-10-24T08:57:07.781Z,14.17
2022-10-24T08:59:37.804Z,11.33
2022-10-24T09:02:14.658Z,12.27
2022-10-24T09:04:48.904Z,6.03
2022-10-24T09:07:20.273Z,8.83
2022-10-24T09:09:52.784Z,13.70
2022-10-24T09:12:22.187Z,15.80
2022-10-24T09:14:59.176Z,5.80
2022-10-24T09:17:32.341Z,11.57
2022-10-24T09:20:02.373Z,10.17
2022-10-24T09:22:34.765Z,11.20
2022-10-24T09:25:08.234Z,12.60
2022-10-24T09:27:39.011Z,10.93
2022-10-24T09:30:12.901Z,13.87
2022-10-24T09:32:43.435Z,18.40
2022-10-24T09:35:18.961Z,13.30
2022-10-24T09:37:49.764Z,18.37
2022-10-24T09:40:22.362Z,7.00
2022-10-24T09:42:56.887Z,11.30
2022-10-24T09:45:42.733Z,7.93
2022-10-24T09:48:26.085Z,20.83
2022-10-24T09:50:58.598Z,12.13
2022-10-24T09:53:29.395Z,10.43
2022-10-24T09:56:02.537Z,6.37
2022-10-24T09:58:33.910Z,14.00
2022-10-24T10:01:06.389Z,15.83
2022-10-24T10:03:35.923Z,7.60
2022-10-24T10:06:15.538Z,7.57
2022-10-24T10:08:51.257Z,17.07
2022-10-24T10:11:26.747Z,9.43
2022-10-24T10:13:55.725Z,7.77
2022-10-24T10:16:26.651Z,11.30
2022-10-24T10:19:03.682Z,8.90
2022-10-24T10:21:53.902Z,11.23
2022-10-24T10:24:26.817Z,15.27
2022-10-24T10:26:56.563Z,20.13
2022-10-24T10:29:25.415Z,7.17
2022-10-24T10:32:01.596Z,12.70
2022-10-24T10:34:38.533Z,9.30
2022-10-24T10:37:27.555Z,8.63
2022-10-24T10:40:14.295Z,13.80
2022-10-24T10:42:57.111Z,11.83
2022-10-24T10:45:36.315Z,17.87
2022-10-24T10:48:26.070Z,10.10
2022-10-24T10:51:02.233Z,13.73
2022-10-24T10:53:40.191Z,12.80
2022-10-24T10:56:26.205Z,9.87
2022-10-24T10:59:06.051Z,12.20
2022-10-24T11:01:48.448Z,20.50
2022-10-24T11:04:26.512Z,8.90
2022-10-24T11:09:32.572Z,15.17
2022-10-24T11:12:07.434Z,6.37
2022-10-24T11:14:40.110Z,16.67
2022-10-24T11:17:21.206Z,6.63
2022-10-24T11:19:57.931Z,15.43
2022-10-24T11:22:30.636Z,12.40
2022-10-24T11:25:02.766Z,11.30
2022-10-24T11:27:39.957Z,10.50
2022-10-24T11:30:16.707Z,14.33
2022-10-24T11:32:51.857Z,12.93
2022-10-24T11:35:28.854Z,5.53
2022-10-24T11:38:01.893Z,8.80
2022-10-24T11:40:31.695Z,9.43
2022-10-24T11:43:09.808Z,10.97
2022-10-24T11:45:46.840Z,9.50
2022-10-24T11:48:20.595Z,9.93
2022-10-24T11:50:52.556Z,10.30
2022-10-24T11:53:48.419Z,8.90
2022-10-24T11:56:24.968Z,10.87
2022-10-24T11:59:00.694Z,8.63
2022-10-24T12:01:48.548Z,7.30
2022-10-24T12:04:48.960Z,17.80
2022-10-24T12:07:41.009Z,11.90
2022-10-24T12:10:35.860Z,23.47
2022-10-24T12:13:37.827Z,23.63
2022-10-24T12:16:17.154Z,28.83
2022-10-24T12:18:48.963Z,17.87
2022-10-24T12:21:25.692Z,19.83
2022-10-24T12:23:56.403Z,13.40
2022-10-24T12:26:28.983Z,10.80
2022-10-24T12:28:58.619Z,18.10
2022-10-24T12:31:30.310Z,16.30
2022-10-24T12:34:31.995Z,12.23
2022-10-24T12:37:12.242Z,10.53
2022-10-24T12:39:47.101Z,13.95
2022-10-24T12:42:18.018Z,10.57
2022-10-24T12:44:50.516Z,16.98
2022-10-24T12:48:10.705Z,9.98
2022-10-24T12:51:21.526Z,13.38
2022-10-24T12:54:06.807Z,15.45
2022-10-24T12:56:35.529Z,10.10
2022-10-24T12:59:18.836Z,14.23
2022-10-24T13:01:48.971Z,15.02
2022-10-24T13:04:50.550Z,13.48
2022-10-24T13:07:48.635Z,18.15
2022-10-24T13:10:35.602Z,9.32
2022-10-24T13:13:33.328Z,13.73
2022-10-24T13:16:08.017Z,8.95
2022-10-24T13:18:48.559Z,10.20
2022-10-24T13:21:24.606Z,13.85
2022-10-24T13:23:53.370Z,12.95
2022-10-24T13:26:42.797Z,10.48
2022-10-24T13:29:16.274Z,8.07
2022-10-24T13:31:49.996Z,10.50
2022-10-24T13:34:27.833Z,11.88
2022-10-24T13:37:15.693Z,17.23
2022-10-24T13:39:49.102Z,11.70
2022-10-24T13:42:26.728Z,8.73
2022-10-24T13:45:00.130Z,10.32
2022-10-24T13:47:33.484Z,10.93
2022-10-24T13:50:08.706Z,12.38
2022-10-24T13:52:49.087Z,10.73
2022-10-24T13:55:26.004Z,15.13
2022-10-24T13:58:00.478Z,7.25
2022-10-24T14:00:30.446Z,9.40
2022-10-24T14:03:02.370Z,9.43
2022-10-24T14:05:37.371Z,7.50
2022-10-24T14:08:08.282Z,33.28
2022-10-24T14:10:36.813Z,37.07
2022-10-24T14:13:06.451Z,16.08
2022-10-24T14:15:34.816Z,9.38
2022-10-24T14:18:07.267Z,26.73
2022-10-24T14:20:37.410Z,57.35
2022-10-24T14:23:24.354Z,26.88
2022-10-24T14:25:56.355Z,84.90
2022-10-24T14:28:36.502Z,53.70
2022-10-24T14:31:10.093Z,137.25
2022-10-24T14:33:45.040Z,143.07
2022-10-24T14:36:14.352Z,166.40
2022-10-24T14:38:43.697Z,54.38
2022-10-24T14:41:12.185Z,17.48
2022-10-24T14:43:45.028Z,17.27
2022-10-24T14:46:33.395Z,13.10
2022-10-24T14:49:24.775Z,16.77
2022-10-24T14:51:55.050Z,17.30
2022-10-24T14:54:25.527Z,15.80
2022-10-24T14:56:54.564Z,8.73
2022-10-24T14:59:29.446Z,11.18
2022-10-24T15:02:00.775Z,31.13
2022-10-24T15:04:37.525Z,16.85
2022-10-24T15:07:27.836Z,26.13
2022-10-24T15:09:57.518Z,25.52
2022-10-24T15:12:29.040Z,18.48
2022-10-24T15:15:22.540Z,7.47
2022-10-24T15:17:54.815Z,45.28
2022-10-24T15:20:27.513Z,36.20
2022-10-24T15:22:58.213Z,28.17
2022-10-24T15:25:30.791Z,19.77
2022-10-24T15:28:00.567Z,19.63
2022-10-24T15:30:33.461Z,28.77
2022-10-24T15:33:03.286Z,12.52
2022-10-24T15:35:35.330Z,19.05
2022-10-24T15:38:06.505Z,19.25
2022-10-24T15:40:36.037Z,15.10
2022-10-24T15:43:04.296Z,13.30
2022-10-24T15:45:34.792Z,8.32
2022-10-24T15:48:03.008Z,13.52
2022-10-24T15:50:31.306Z,11.07
2022-10-24T15:53:04.661Z,11.45
2022-10-24T15:55:36.600Z,13.88
2022-10-24T15:58:05.005Z,16.30
2022-10-24T16:00:34.775Z,13.93
2022-10-24T16:03:04.643Z,16.00
2022-10-24T16:05:37.900Z,13.55
2022-10-24T16:08:06.450Z,28.25
2022-10-24T16:10:34.792Z,55.97
2022-10-24T16:13:03.082Z,37.65
2022-10-24T16:15:36.288Z,18.85
2022-10-24T16:18:05.153Z,12.77
2022-10-24T16:20:36.617Z,12.52
2022-10-24T16:23:05.657Z,12.98
2022-10-24T16:25:39.150Z,9.00
2022-10-24T16:28:08.416Z,9.13
2022-10-24T16:30:40.433Z,7.03
2022-10-24T16:33:09.310Z,12.52
2022-10-24T16:35:40.626Z,9.68
2022-10-24T16:38:10.464Z,10.35
2022-10-24T16:43:11.047Z,9.93
2022-10-24T16:45:40.860Z,7.00
2022-10-24T16:48:09.339Z,6.05
2022-10-24T16:50:37.691Z,6.38
2022-10-24T16:53:09.863Z,6.07
2022-10-24T16:55:38.598Z,8.15
2022-10-24T16:58:06.933Z,7.75
2022-10-24T17:00:35.233Z,8.20
2022-10-24T17:03:04.989Z,4.30
2022-10-24T17:05:36.270Z,8.57
2022-10-24T17:08:04.581Z,5.50
2022-10-24T17:10:32.902Z,7.30
2022-10-24T17:13:04.918Z,5.88
2022-10-24T17:15:33.217Z,10.80
2022-10-24T17:18:04.220Z,7.53
2022-10-24T17:20:34.018Z,12.05
2022-10-24T17:23:05.650Z,6.20
2022-10-24T17:25:37.873Z,8.60
2022-10-24T17:28:06.424Z,8.50
2022-10-24T17:30:35.238Z,8.95
2022-10-24T17:33:03.616Z,6.82
2022-10-24T17:35:40.921Z,7.00
2022-10-24T17:38:20.072Z,6.10
2022-10-24T17:40:50.322Z,9.23
2022-10-24T17:43:22.623Z,6.20
2022-10-24T17:46:18.301Z,12.20
2022-10-24T17:48:58.940Z,9.48
2022-10-24T17:51:37.115Z,9.32
2022-10-24T17:54:06.367Z,12.27
2022-10-24T17:56:34.640Z,20.23
2022-10-24T17:59:02.938Z,5.90
2022-10-24T18:01:33.999Z,9.38
2022-10-24T18:04:02.412Z,7.60
2022-10-24T18:06:32.611Z,11.80
2022-10-24T18:09:01.251Z,14.23
2022-10-24T18:11:29.463Z,12.75
2022-10-24T18:13:57.821Z,14.70
2022-10-24T18:16:35.130Z,17.77
2022-10-24T18:19:06.618Z,20.35
2022-10-24T18:21:38.918Z,23.60
2022-10-24T18:24:08.793Z,18.95
2022-10-24T18:26:37.220Z,20.20
2022-10-24T18:29:05.877Z,20.83
2022-10-24T18:31:35.153Z,20.48
2022-10-24T18:34:08.572Z,21.40
2022-10-24T18:36:47.873Z,15.35
2022-10-24T18:39:16.404Z,12.23
2022-10-24T18:41:48.521Z,13.60
2022-10-24T18:44:28.960Z,55.58
2022-10-24T18:46:59.966Z,64.68
2022-10-24T18:49:29.050Z,36.30
2022-10-24T18:52:08.088Z,52.58
2022-10-24T18:54:38.398Z,36.47
2022-10-24T18:57:25.776Z,22.52
2022-10-24T18:59:55.046Z,16.23
2022-10-24T19:02:30.546Z,15.45
2022-10-24T19:05:08.409Z,10.93
2022-10-24T19:07:38.395Z,12.68
2022-10-24T19:10:07.552Z,13.18
2022-10-24T19:12:39.141Z,16.65
2022-10-24T19:15:08.445Z,13.27
2022-10-24T19:17:36.894Z,10.05
2022-10-24T19:20:05.821Z,20.33
2022-10-24T19:22:34.204Z,16.48
2022-10-24T19:25:03.846Z,16.30
2022-10-24T19:27:34.780Z,9.57
2022-10-24T19:30:03.188Z,7.68
2022-10-24T19:32:34.317Z,13.13
2022-10-24T19:35:02.605Z,21.58
2022-10-24T19:37:30.827Z,16.48
2022-10-24T19:39:59.139Z,8.23
2022-10-24T19:42:31.858Z,12.35
2022-10-24T19:45:00.126Z,23.55
2022-10-24T19:47:28.405Z,9.00
2022-10-24T19:49:56.672Z,10.77
2022-10-24T19:52:24.857Z,16.80
2022-10-24T19:54:55.863Z,18.45
2022-10-24T19:57:24.115Z,9.77
2022-10-24T19:59:53.932Z,9.90
2022-10-24T20:02:26.479Z,10.68
2022-10-24T20:04:54.755Z,9.68
2022-10-24T20:07:23.377Z,13.93
2022-10-24T20:09:51.546Z,12.57
2022-10-24T20:12:19.898Z,16.63
2022-10-24T20:14:48.100Z,10.45
2022-10-24T20:17:17.804Z,11.80
2022-10-24T20:19:46.107Z,12.20
2022-10-24T20:22:14.338Z,11.48
2022-10-24T20:24:42.615Z,24.10
2022-10-24T20:27:10.836Z,15.25
2022-10-24T20:29:39.418Z,19.20
2022-10-24T20:32:07.886Z,11.90
2022-10-24T20:34:37.584Z,11.23
2022-10-24T20:37:08.157Z,17.50
2022-10-24T20:39:37.536Z,14.25
2022-10-24T20:42:06.282Z,12.82
2022-10-24T20:44:37.696Z,20.23
2022-10-24T20:47:06.174Z,15.07
2022-10-24T20:49:34.407Z,11.50
2022-10-24T20:52:04.142Z,12.85
2022-10-24T20:54:32.372Z,14.75
2022-10-24T20:57:00.601Z,14.00
2022-10-24T20:59:28.916Z,16.77
2022-10-24T21:01:57.234Z,16.50
2022-10-24T21:04:25.663Z,9.43
2022-10-24T21:06:53.977Z,13.25
2022-10-24T21:09:23.737Z,14.25
2022-10-24T21:11:52.110Z,14.38
2022-10-24T21:14:21.528Z,22.95
2022-10-24T21:16:49.896Z,24.15
2022-10-24T21:19:18.223Z,18.05
2022-10-24T21:21:46.455Z,13.52
2022-10-24T21:24:17.831Z,18.58
2022-10-24T21:26:47.512Z,12.75
2022-10-24T21:29:32.218Z,24.52
2022-10-24T21:32:02.009Z,13.10
2022-10-24T21:34:33.411Z,14.02
2022-10-24T21:37:03.593Z,13.82
2022-10-24T21:39:32.054Z,12.95
2022-10-24T21:42:01.699Z,24.77
2022-10-24T21:44:29.954Z,21.00
2022-10-24T21:46:58.311Z,23.77
2022-10-24T21:49:26.694Z,24.13
2022-10-24T21:51:54.929Z,14.75
2022-10-24T21:54:24.817Z,20.70
2022-10-24T21:56:53.177Z,16.48
2022-10-24T21:59:23.678Z,15.77
2022-10-24T22:01:53.051Z,21.65
2022-10-24T22:04:21.801Z,19.02
2022-10-24T22:06:50.133Z,16.40
2022-10-24T22:09:20.921Z,16.83
2022-10-24T22:11:49.192Z,21.25
2022-10-24T22:14:19.276Z,20.92
2022-10-24T22:16:49.034Z,14.50
2022-10-24T22:19:17.511Z,18.92
2022-10-24T22:21:47.369Z,16.45
2022-10-24T22:24:18.526Z,24.23
2022-10-24T22:26:47.513Z,26.50
2022-10-24T22:29:18.631Z,19.65
2022-10-24T22:31:49.098Z,19.55
2022-10-24T22:34:19.636Z,17.88
2022-10-24T22:37:00.979Z,19.10
2022-10-24T22:39:29.980Z,15.18
2022-10-24T22:41:58.682Z,12.13
2022-10-24T22:44:27.490Z,20.58
2022-10-24T22:47:24.390Z,22.27
2022-10-24T22:50:03.928Z,14.85
2022-10-24T22:52:32.658Z,17.27
2022-10-24T22:55:03.841Z,15.85
2022-10-24T22:57:33.035Z,20.52
2022-10-24T23:00:01.593Z,18.48
2022-10-24T23:02:36.635Z,21.42
2022-10-24T23:05:07.699Z,13.70
2022-10-24T23:07:47.053Z,23.45
2022-10-24T23:10:20.142Z,14.23
2022-10-24T23:12:49.622Z,15.82
2022-10-24T23:15:20.661Z,15.38
2022-10-24T23:17:51.216Z,14.38
2022-10-24T23:20:30.728Z,19.00
2022-10-24T23:23:16.361Z,17.13
2022-10-24T23:25:51.415Z,21.80
2022-10-24T23:28:25.571Z,18.95
2022-10-24T23:30:54.421Z,19.55
2022-10-24T23:33:27.738Z,20.35
2022-10-24T23:35:59.356Z,16.35
2022-10-24T23:38:28.552Z,32.55
2022-10-24T23:40:59.173Z,24.05
2022-10-24T23:43:27.899Z,19.25
2022-10-24T23:46:01.055Z,13.07
2022-10-24T23:48:49.757Z,13.60
2022-10-24T23:51:24.783Z,19.73
2022-10-24T23:53:55.088Z,19.33
2022-10-24T23:56:25.170Z,15.88
2022-10-24T23:58:54.275Z,14.57
